THY2848 LTFM-LTCB
Flight info
| Callsign | THY2848 |
|---|---|
| Flight time | 1h 18m |
| Altitude | 35000 |
| Route | EKAWE UT641 ABSAX UN743 GAKSU UT310 SIN UW704 CRM UM11 TERME |
| Aircraft | A21N/M-SDE2E3FGHIJ1RWXY/LB1 |
Departure
| Time | 2026-05-07 08:46 |
|---|---|
| Airport | İstanbul Airport (LTFM) |
Arrival
| Time | 2026-05-07 10:04 |
|---|---|
| Airport | Ordu–Giresun Airport (LTCB) |
| Time | Latitude | Longitude | Altitude | Speed | Heading |
|---|---|---|---|---|---|
| 2026-05-07 08:12 | 41.26037 | 28.74963 | 319 ft | 0 kts | 251° |
| 2026-05-07 08:39 | 41.26038 | 28.74967 | 319 ft | 3 kts | 251° |
| 2026-05-07 08:39 | 41.26046 | 28.74999 | 317 ft | 2 kts | 251° |
| 2026-05-07 08:39 | 41.26051 | 28.75027 | 318 ft | 4 kts | 270° |
| 2026-05-07 08:39 | 41.26044 | 28.75056 | 317 ft | 4 kts | 321° |
| 2026-05-07 08:40 | 41.26023 | 28.75070 | 319 ft | 3 kts | 341° |
| 2026-05-07 08:40 | 41.26020 | 28.75071 | 319 ft | 0 kts | 341° |
| 2026-05-07 08:43 | 41.26021 | 28.75071 | 319 ft | 1 kts | 341° |
| 2026-05-07 08:43 | 41.26048 | 28.75058 | 319 ft | 7 kts | 339° |
| 2026-05-07 08:43 | 41.26109 | 28.75026 | 319 ft | 11 kts | 338° |
| 2026-05-07 08:43 | 41.26188 | 28.74985 | 319 ft | 13 kts | 346° |
| 2026-05-07 08:44 | 41.26240 | 28.75059 | 319 ft | 15 kts | 95° |
| 2026-05-07 08:44 | 41.26239 | 28.75156 | 319 ft | 11 kts | 89° |
| 2026-05-07 08:44 | 41.26240 | 28.75265 | 319 ft | 13 kts | 89° |
| 2026-05-07 08:44 | 41.26242 | 28.75394 | 319 ft | 15 kts | 89° |
| 2026-05-07 08:45 | 41.26244 | 28.75535 | 319 ft | 16 kts | 89° |
| 2026-05-07 08:45 | 41.26250 | 28.75660 | 321 ft | 7 kts | 51° |
| 2026-05-07 08:45 | 41.26304 | 28.75668 | 321 ft | 9 kts | 356° |
| 2026-05-07 08:45 | 41.26588 | 28.75663 | 314 ft | 79 kts | 359° |
| 2026-05-07 08:46 | 41.27375 | 28.75650 | 300 ft | 144 kts | 359° |
| 2026-05-07 08:46 | 41.28526 | 28.75631 | 392 ft | 176 kts | 359° |
| 2026-05-07 08:46 | 41.29742 | 28.75627 | 1024 ft | 175 kts | 358° |
| 2026-05-07 08:46 | 41.30936 | 28.75824 | 1675 ft | 172 kts | 27° |
| 2026-05-07 08:47 | 41.31685 | 28.77002 | 2309 ft | 176 kts | 62° |
| 2026-05-07 08:47 | 41.32517 | 28.78289 | 2658 ft | 198 kts | 32° |
| 2026-05-07 08:47 | 41.33776 | 28.79197 | 3177 ft | 213 kts | 28° |
| 2026-05-07 08:47 | 41.35120 | 28.80172 | 3736 ft | 229 kts | 29° |
| 2026-05-07 08:48 | 41.36432 | 28.81525 | 4132 ft | 252 kts | 53° |
| 2026-05-07 08:48 | 41.37311 | 28.83619 | 4733 ft | 265 kts | 65° |
| 2026-05-07 08:48 | 41.38094 | 28.85868 | 5535 ft | 271 kts | 65° |
| 2026-05-07 08:48 | 41.38903 | 28.88156 | 6389 ft | 274 kts | 64° |
| 2026-05-07 08:49 | 41.39731 | 28.90454 | 7227 ft | 278 kts | 64° |
| 2026-05-07 08:49 | 41.40580 | 28.92792 | 8038 ft | 281 kts | 63° |
| 2026-05-07 08:49 | 41.41444 | 28.95155 | 8822 ft | 286 kts | 63° |
| 2026-05-07 08:49 | 41.42326 | 28.97549 | 9606 ft | 289 kts | 63° |
| 2026-05-07 08:50 | 41.43224 | 28.99971 | 10303 ft | 297 kts | 63° |
| 2026-05-07 08:50 | 41.44167 | 29.02513 | 10649 ft | 316 kts | 63° |
| 2026-05-07 08:50 | 41.45173 | 29.05232 | 10929 ft | 337 kts | 63° |
| 2026-05-07 08:50 | 41.46221 | 29.08067 | 11309 ft | 351 kts | 63° |
| 2026-05-07 08:51 | 41.47309 | 29.11015 | 11976 ft | 357 kts | 63° |
| 2026-05-07 08:51 | 41.48409 | 29.13999 | 12719 ft | 360 kts | 63° |
| 2026-05-07 08:51 | 41.49519 | 29.17013 | 13448 ft | 363 kts | 63° |
| 2026-05-07 08:51 | 41.50634 | 29.20053 | 14143 ft | 367 kts | 63° |
| 2026-05-07 08:52 | 41.51758 | 29.23127 | 14840 ft | 370 kts | 63° |
| 2026-05-07 08:52 | 41.52888 | 29.26234 | 15513 ft | 374 kts | 63° |
| 2026-05-07 08:52 | 41.54034 | 29.29375 | 16158 ft | 378 kts | 63° |
| 2026-05-07 08:52 | 41.55196 | 29.32539 | 16797 ft | 381 kts | 63° |
| 2026-05-07 08:53 | 41.56362 | 29.35735 | 17428 ft | 385 kts | 63° |
| 2026-05-07 08:53 | 41.57531 | 29.38966 | 18026 ft | 388 kts | 63° |
| 2026-05-07 08:53 | 41.58710 | 29.42224 | 18622 ft | 391 kts | 63° |
| 2026-05-07 08:53 | 41.59903 | 29.45512 | 19199 ft | 395 kts | 63° |
| 2026-05-07 08:54 | 41.61110 | 29.48831 | 19745 ft | 399 kts | 63° |
| 2026-05-07 08:54 | 41.62325 | 29.52181 | 20296 ft | 403 kts | 63° |
| 2026-05-07 08:54 | 41.63552 | 29.55562 | 20804 ft | 406 kts | 63° |
| 2026-05-07 08:54 | 41.64794 | 29.58977 | 21328 ft | 409 kts | 63° |
| 2026-05-07 08:55 | 41.66040 | 29.62418 | 21819 ft | 413 kts | 63° |
| 2026-05-07 08:55 | 41.67290 | 29.65894 | 22303 ft | 416 kts | 63° |
| 2026-05-07 08:55 | 41.68556 | 29.69394 | 22770 ft | 420 kts | 63° |
| 2026-05-07 08:55 | 41.69830 | 29.72925 | 23220 ft | 423 kts | 63° |
| 2026-05-07 08:56 | 41.71115 | 29.76497 | 23683 ft | 427 kts | 63° |
| 2026-05-07 08:56 | 41.72400 | 29.80090 | 24121 ft | 430 kts | 64° |
| 2026-05-07 08:56 | 41.73678 | 29.83659 | 24541 ft | 432 kts | 63° |
| 2026-05-07 08:56 | 41.74984 | 29.87298 | 24964 ft | 435 kts | 63° |
| 2026-05-07 08:57 | 41.76316 | 29.91004 | 25379 ft | 437 kts | 63° |
| 2026-05-07 08:57 | 41.77614 | 29.94639 | 25779 ft | 440 kts | 63° |
| 2026-05-07 08:57 | 41.78935 | 29.98344 | 26186 ft | 442 kts | 63° |
| 2026-05-07 08:57 | 41.80261 | 30.02072 | 26577 ft | 444 kts | 63° |
| 2026-05-07 08:58 | 41.81613 | 30.05869 | 26969 ft | 447 kts | 63° |
| 2026-05-07 08:58 | 41.82937 | 30.09584 | 27334 ft | 449 kts | 63° |
| 2026-05-07 08:58 | 41.84282 | 30.13372 | 27696 ft | 451 kts | 63° |
| 2026-05-07 08:58 | 41.85634 | 30.17185 | 28060 ft | 453 kts | 63° |
| 2026-05-07 08:59 | 41.87003 | 30.21013 | 28417 ft | 455 kts | 62° |
| 2026-05-07 08:59 | 41.88381 | 30.24844 | 28761 ft | 457 kts | 62° |
| 2026-05-07 08:59 | 41.89761 | 30.28704 | 29088 ft | 459 kts | 62° |
| 2026-05-07 08:59 | 41.91136 | 30.32586 | 29419 ft | 460 kts | 63° |
| 2026-05-07 09:00 | 41.92503 | 30.36467 | 29843 ft | 459 kts | 62° |
| 2026-05-07 09:00 | 41.93869 | 30.40332 | 30244 ft | 457 kts | 62° |
| 2026-05-07 09:00 | 41.95222 | 30.44192 | 30632 ft | 456 kts | 62° |
| 2026-05-07 09:00 | 41.96569 | 30.48044 | 30977 ft | 455 kts | 62° |
| 2026-05-07 09:01 | 41.97883 | 30.51835 | 31327 ft | 454 kts | 62° |
| 2026-05-07 09:01 | 41.99100 | 30.55762 | 31650 ft | 456 kts | 69° |
| 2026-05-07 09:01 | 41.99759 | 30.59943 | 31950 ft | 460 kts | 82° |
| 2026-05-07 09:01 | 41.99883 | 30.64249 | 32269 ft | 461 kts | 86° |
| 2026-05-07 09:02 | 41.99891 | 30.68557 | 32565 ft | 461 kts | 87° |
| 2026-05-07 09:02 | 41.99892 | 30.72859 | 32848 ft | 460 kts | 87° |
| 2026-05-07 09:02 | 41.99900 | 30.77153 | 33124 ft | 459 kts | 87° |
| 2026-05-07 09:02 | 41.99922 | 30.81441 | 33390 ft | 458 kts | 86° |
| 2026-05-07 09:03 | 41.99943 | 30.85730 | 33652 ft | 457 kts | 86° |
| 2026-05-07 09:03 | 41.99969 | 30.90002 | 33897 ft | 457 kts | 86° |
| 2026-05-07 09:03 | 41.99993 | 30.94269 | 34140 ft | 456 kts | 87° |
| 2026-05-07 09:03 | 42.00015 | 30.98539 | 34358 ft | 456 kts | 86° |
| 2026-05-07 09:04 | 42.00213 | 31.02773 | 34603 ft | 452 kts | 79° |
| 2026-05-07 09:04 | 42.00894 | 31.06875 | 34783 ft | 449 kts | 72° |
| 2026-05-07 09:04 | 42.01770 | 31.10900 | 34970 ft | 448 kts | 71° |
| 2026-05-07 09:04 | 42.02662 | 31.14918 | 35152 ft | 449 kts | 71° |
| 2026-05-07 09:05 | 42.04406 | 31.22989 | 35192 ft | 449 kts | 72° |
| 2026-05-07 09:05 | 42.06117 | 31.31060 | 35173 ft | 449 kts | 72° |
| 2026-05-07 09:06 | 42.07854 | 31.39130 | 35171 ft | 448 kts | 72° |
| 2026-05-07 09:06 | 42.09559 | 31.47148 | 35170 ft | 449 kts | 72° |
| 2026-05-07 09:07 | 42.11252 | 31.55235 | 35170 ft | 449 kts | 72° |
| 2026-05-07 09:07 | 42.12933 | 31.63337 | 35171 ft | 449 kts | 72° |
| 2026-05-07 09:08 | 42.14607 | 31.71440 | 35171 ft | 449 kts | 72° |
| 2026-05-07 09:08 | 42.16296 | 31.79545 | 35170 ft | 449 kts | 72° |
| 2026-05-07 09:09 | 42.17976 | 31.87647 | 35176 ft | 449 kts | 72° |
| 2026-05-07 09:09 | 42.19639 | 31.95753 | 35180 ft | 449 kts | 72° |
| 2026-05-07 09:10 | 42.21287 | 32.03840 | 35181 ft | 449 kts | 72° |
| 2026-05-07 09:10 | 42.22664 | 32.10653 | 35179 ft | 449 kts | 73° |
| 2026-05-07 09:11 | 42.24287 | 32.18734 | 35180 ft | 449 kts | 73° |
| 2026-05-07 09:11 | 42.26086 | 32.26795 | 35180 ft | 448 kts | 71° |
| 2026-05-07 09:12 | 42.27935 | 32.34836 | 35180 ft | 448 kts | 71° |
| 2026-05-07 09:12 | 42.29776 | 32.42881 | 35181 ft | 448 kts | 71° |
| 2026-05-07 09:13 | 42.31615 | 32.50916 | 35179 ft | 448 kts | 71° |
| 2026-05-07 09:13 | 42.32996 | 32.59114 | 35176 ft | 451 kts | 85° |
| 2026-05-07 09:14 | 42.32835 | 32.63362 | 35181 ft | 454 kts | 96° |
| 2026-05-07 09:14 | 42.32360 | 32.67585 | 35183 ft | 454 kts | 97° |
| 2026-05-07 09:14 | 42.31345 | 32.76005 | 35180 ft | 454 kts | 97° |
| 2026-05-07 09:15 | 42.30376 | 32.84424 | 35180 ft | 453 kts | 97° |
| 2026-05-07 09:15 | 42.29419 | 32.92844 | 35188 ft | 453 kts | 97° |
| 2026-05-07 09:16 | 42.28459 | 33.01254 | 35191 ft | 453 kts | 97° |
| 2026-05-07 09:16 | 42.27483 | 33.09658 | 35190 ft | 453 kts | 97° |
| 2026-05-07 09:17 | 42.26505 | 33.18060 | 35189 ft | 453 kts | 97° |
| 2026-05-07 09:17 | 42.25515 | 33.26395 | 35191 ft | 453 kts | 97° |
| 2026-05-07 09:18 | 42.24528 | 33.34795 | 35190 ft | 453 kts | 97° |
| 2026-05-07 09:18 | 42.23536 | 33.43186 | 35190 ft | 453 kts | 97° |
| 2026-05-07 09:19 | 42.22519 | 33.51584 | 35192 ft | 453 kts | 97° |
| 2026-05-07 09:19 | 42.21505 | 33.59981 | 35191 ft | 453 kts | 97° |
| 2026-05-07 09:20 | 42.20491 | 33.68378 | 35192 ft | 454 kts | 97° |
| 2026-05-07 09:20 | 42.19466 | 33.76772 | 35192 ft | 454 kts | 97° |
| 2026-05-07 09:21 | 42.18425 | 33.85170 | 35198 ft | 454 kts | 97° |
| 2026-05-07 09:21 | 42.17388 | 33.93569 | 35198 ft | 454 kts | 97° |
| 2026-05-07 09:22 | 42.16356 | 34.01909 | 35200 ft | 454 kts | 97° |
| 2026-05-07 09:22 | 42.15311 | 34.10299 | 35200 ft | 454 kts | 98° |
| 2026-05-07 09:23 | 42.14255 | 34.18685 | 35196 ft | 454 kts | 98° |
| 2026-05-07 09:23 | 42.13195 | 34.27064 | 35190 ft | 454 kts | 98° |
| 2026-05-07 09:24 | 42.12118 | 34.35447 | 35188 ft | 454 kts | 98° |
| 2026-05-07 09:24 | 42.11036 | 34.43826 | 35189 ft | 453 kts | 98° |
| 2026-05-07 09:25 | 42.09904 | 34.52179 | 35191 ft | 453 kts | 99° |
| 2026-05-07 09:25 | 42.08746 | 34.60465 | 35190 ft | 453 kts | 99° |
| 2026-05-07 09:26 | 42.07584 | 34.68790 | 35188 ft | 452 kts | 99° |
| 2026-05-07 09:26 | 42.06421 | 34.77114 | 35190 ft | 452 kts | 99° |
| 2026-05-07 09:27 | 42.05257 | 34.85414 | 35191 ft | 451 kts | 99° |
| 2026-05-07 09:28 | 42.03587 | 34.97871 | 35189 ft | 451 kts | 99° |
| 2026-05-07 09:28 | 42.02337 | 35.06138 | 35186 ft | 452 kts | 105° |
| 2026-05-07 09:28 | 42.01146 | 35.10047 | 35184 ft | 453 kts | 119° |
| 2026-05-07 09:29 | 41.99425 | 35.13598 | 35193 ft | 454 kts | 124° |
| 2026-05-07 09:29 | 41.95787 | 35.20569 | 35190 ft | 456 kts | 124° |
| 2026-05-07 09:30 | 41.92205 | 35.27593 | 35192 ft | 456 kts | 123° |
| 2026-05-07 09:30 | 41.88649 | 35.34637 | 35187 ft | 454 kts | 123° |
| 2026-05-07 09:31 | 41.85091 | 35.41647 | 35182 ft | 455 kts | 123° |
| 2026-05-07 09:31 | 41.81529 | 35.48649 | 35179 ft | 454 kts | 123° |
| 2026-05-07 09:32 | 41.77984 | 35.55602 | 35181 ft | 454 kts | 123° |
| 2026-05-07 09:32 | 41.74425 | 35.62583 | 35186 ft | 454 kts | 123° |
| 2026-05-07 09:33 | 41.70862 | 35.69555 | 35189 ft | 454 kts | 123° |
| 2026-05-07 09:33 | 41.67288 | 35.76517 | 35189 ft | 454 kts | 123° |
| 2026-05-07 09:34 | 41.63712 | 35.83469 | 35187 ft | 454 kts | 123° |
| 2026-05-07 09:34 | 41.60132 | 35.90424 | 35188 ft | 454 kts | 123° |
| 2026-05-07 09:35 | 41.56545 | 35.97367 | 35190 ft | 454 kts | 123° |
| 2026-05-07 09:35 | 41.52960 | 36.04297 | 35189 ft | 454 kts | 124° |
| 2026-05-07 09:36 | 41.49367 | 36.11217 | 35189 ft | 454 kts | 124° |
| 2026-05-07 09:36 | 41.45772 | 36.18142 | 35194 ft | 454 kts | 124° |
| 2026-05-07 09:37 | 41.42159 | 36.25054 | 35202 ft | 454 kts | 124° |
| 2026-05-07 09:37 | 41.38554 | 36.31963 | 35200 ft | 454 kts | 124° |
| 2026-05-07 09:38 | 41.34942 | 36.38870 | 35199 ft | 454 kts | 124° |
| 2026-05-07 09:38 | 41.31345 | 36.45715 | 35011 ft | 452 kts | 124° |
| 2026-05-07 09:38 | 41.29532 | 36.49159 | 34675 ft | 454 kts | 124° |
| 2026-05-07 09:39 | 41.27820 | 36.52679 | 34277 ft | 453 kts | 117° |
| 2026-05-07 09:39 | 41.26610 | 36.56515 | 33652 ft | 449 kts | 105° |
| 2026-05-07 09:39 | 41.26036 | 36.60591 | 33178 ft | 449 kts | 95° |
| 2026-05-07 09:39 | 41.25732 | 36.64725 | 32277 ft | 451 kts | 94° |
| 2026-05-07 09:40 | 41.25460 | 36.68882 | 31511 ft | 451 kts | 94° |
| 2026-05-07 09:40 | 41.25179 | 36.73033 | 30869 ft | 449 kts | 94° |
| 2026-05-07 09:40 | 41.24885 | 36.77143 | 30247 ft | 445 kts | 94° |
| 2026-05-07 09:40 | 41.24588 | 36.81216 | 29645 ft | 442 kts | 94° |
| 2026-05-07 09:41 | 41.24288 | 36.85269 | 29029 ft | 439 kts | 94° |
| 2026-05-07 09:41 | 41.23984 | 36.89287 | 28437 ft | 435 kts | 95° |
| 2026-05-07 09:41 | 41.23678 | 36.93267 | 27854 ft | 431 kts | 95° |
| 2026-05-07 09:41 | 41.23377 | 36.97218 | 27261 ft | 427 kts | 95° |
| 2026-05-07 09:42 | 41.23082 | 37.01131 | 26658 ft | 424 kts | 95° |
| 2026-05-07 09:42 | 41.22784 | 37.05019 | 26057 ft | 421 kts | 95° |
| 2026-05-07 09:42 | 41.22487 | 37.08872 | 25470 ft | 418 kts | 95° |
| 2026-05-07 09:42 | 41.22186 | 37.12686 | 24882 ft | 413 kts | 95° |
| 2026-05-07 09:43 | 41.21888 | 37.16463 | 24271 ft | 408 kts | 95° |
| 2026-05-07 09:43 | 41.21601 | 37.20179 | 23692 ft | 402 kts | 96° |
| 2026-05-07 09:43 | 41.21048 | 37.23790 | 23116 ft | 397 kts | 107° |
| 2026-05-07 09:43 | 41.20127 | 37.27179 | 22561 ft | 392 kts | 110° |
| 2026-05-07 09:44 | 41.19138 | 37.30575 | 21986 ft | 388 kts | 110° |
| 2026-05-07 09:44 | 41.18164 | 37.33903 | 21414 ft | 385 kts | 110° |
| 2026-05-07 09:44 | 41.17215 | 37.37164 | 20865 ft | 383 kts | 110° |
| 2026-05-07 09:44 | 41.16267 | 37.40462 | 20323 ft | 381 kts | 110° |
| 2026-05-07 09:45 | 41.15327 | 37.43731 | 19801 ft | 378 kts | 110° |
| 2026-05-07 09:45 | 41.14390 | 37.46983 | 19293 ft | 376 kts | 110° |
| 2026-05-07 09:45 | 41.13454 | 37.50210 | 18804 ft | 374 kts | 110° |
| 2026-05-07 09:45 | 41.12528 | 37.53424 | 18331 ft | 372 kts | 110° |
| 2026-05-07 09:46 | 41.11606 | 37.56625 | 17869 ft | 371 kts | 110° |
| 2026-05-07 09:46 | 41.10686 | 37.59825 | 17376 ft | 369 kts | 110° |
| 2026-05-07 09:46 | 41.09770 | 37.62988 | 16898 ft | 366 kts | 110° |
| 2026-05-07 09:46 | 41.08859 | 37.66117 | 16432 ft | 362 kts | 110° |
| 2026-05-07 09:47 | 41.07965 | 37.69209 | 15980 ft | 358 kts | 110° |
| 2026-05-07 09:47 | 41.07083 | 37.72257 | 15450 ft | 351 kts | 110° |
| 2026-05-07 09:47 | 41.06213 | 37.75241 | 14952 ft | 345 kts | 110° |
| 2026-05-07 09:47 | 41.05348 | 37.78189 | 14465 ft | 342 kts | 111° |
| 2026-05-07 09:48 | 41.04488 | 37.81123 | 13998 ft | 340 kts | 111° |
| 2026-05-07 09:48 | 41.03641 | 37.84023 | 13532 ft | 337 kts | 110° |
| 2026-05-07 09:48 | 41.02798 | 37.86896 | 13087 ft | 333 kts | 111° |
| 2026-05-07 09:48 | 41.01962 | 37.89746 | 12669 ft | 329 kts | 111° |
| 2026-05-07 09:49 | 41.01139 | 37.92555 | 12242 ft | 325 kts | 111° |
| 2026-05-07 09:49 | 41.00107 | 37.95245 | 11854 ft | 332 kts | 126° |
| 2026-05-07 09:49 | 40.98441 | 37.97290 | 11553 ft | 324 kts | 149° |
| 2026-05-07 09:49 | 40.96306 | 37.98300 | 11282 ft | 323 kts | 173° |
| 2026-05-07 09:50 | 40.94053 | 37.98112 | 11063 ft | 326 kts | 196° |
| 2026-05-07 09:50 | 40.92049 | 37.96795 | 10901 ft | 323 kts | 219° |
| 2026-05-07 09:50 | 40.90584 | 37.94632 | 10763 ft | 308 kts | 240° |
| 2026-05-07 09:50 | 40.89850 | 37.92083 | 10631 ft | 291 kts | 261° |
| 2026-05-07 09:51 | 40.89813 | 37.89484 | 10590 ft | 280 kts | 280° |
| 2026-05-07 09:51 | 40.90419 | 37.87054 | 10576 ft | 272 kts | 299° |
| 2026-05-07 09:51 | 40.91512 | 37.85126 | 10488 ft | 257 kts | 316° |
| 2026-05-07 09:51 | 40.92897 | 37.83652 | 10220 ft | 255 kts | 324° |
| 2026-05-07 09:52 | 40.94333 | 37.82284 | 9910 ft | 254 kts | 324° |
| 2026-05-07 09:52 | 40.95739 | 37.80925 | 9591 ft | 253 kts | 323° |
| 2026-05-07 09:52 | 40.97149 | 37.79537 | 9268 ft | 252 kts | 323° |
| 2026-05-07 09:52 | 40.98552 | 37.78138 | 8873 ft | 252 kts | 323° |
| 2026-05-07 09:53 | 40.99953 | 37.76729 | 8433 ft | 254 kts | 322° |
| 2026-05-07 09:53 | 41.01364 | 37.75302 | 7973 ft | 256 kts | 322° |
| 2026-05-07 09:53 | 41.02833 | 37.73950 | 7493 ft | 258 kts | 328° |
| 2026-05-07 09:53 | 41.04361 | 37.72713 | 7018 ft | 257 kts | 329° |
| 2026-05-07 09:54 | 41.05886 | 37.71486 | 6547 ft | 256 kts | 328° |
| 2026-05-07 09:54 | 41.07411 | 37.70256 | 6071 ft | 256 kts | 328° |
| 2026-05-07 09:54 | 41.08907 | 37.69025 | 5734 ft | 249 kts | 324° |
| 2026-05-07 09:54 | 41.09970 | 37.67313 | 5482 ft | 239 kts | 290° |
| 2026-05-07 09:55 | 41.10072 | 37.65212 | 5257 ft | 226 kts | 252° |
| 2026-05-07 09:55 | 41.09420 | 37.63385 | 5097 ft | 215 kts | 231° |
| 2026-05-07 09:55 | 41.08256 | 37.62181 | 4954 ft | 215 kts | 206° |
| 2026-05-07 09:55 | 41.06828 | 37.61680 | 4834 ft | 214 kts | 178° |
| 2026-05-07 09:56 | 41.05862 | 37.61904 | 4748 ft | 214 kts | 158° |
| 2026-05-07 09:56 | 41.04664 | 37.63030 | 4669 ft | 214 kts | 128° |
| 2026-05-07 09:56 | 41.03942 | 37.65426 | 4601 ft | 214 kts | 95° |
| 2026-05-07 09:56 | 41.03988 | 37.67392 | 4561 ft | 214 kts | 84° |
| 2026-05-07 09:57 | 41.04151 | 37.69350 | 4516 ft | 214 kts | 83° |
| 2026-05-07 09:57 | 41.04320 | 37.71308 | 4428 ft | 213 kts | 83° |
| 2026-05-07 09:57 | 41.04376 | 37.72625 | 4339 ft | 212 kts | 98° |
| 2026-05-07 09:57 | 41.03939 | 37.74458 | 4232 ft | 212 kts | 112° |
| 2026-05-07 09:58 | 41.03397 | 37.76221 | 4104 ft | 198 kts | 112° |
| 2026-05-07 09:58 | 41.02914 | 37.77879 | 3913 ft | 188 kts | 110° |
| 2026-05-07 09:58 | 41.02477 | 37.79478 | 3668 ft | 181 kts | 109° |
| 2026-05-07 09:58 | 41.02071 | 37.81022 | 3408 ft | 174 kts | 109° |
| 2026-05-07 09:59 | 41.01896 | 37.82561 | 3134 ft | 166 kts | 88° |
| 2026-05-07 09:59 | 41.01584 | 37.83963 | 2863 ft | 162 kts | 124° |
| 2026-05-07 09:59 | 41.01030 | 37.85255 | 2631 ft | 161 kts | 112° |
| 2026-05-07 09:59 | 41.00651 | 37.86650 | 2569 ft | 161 kts | 108° |
| 2026-05-07 10:00 | 41.00310 | 37.87958 | 2593 ft | 144 kts | 109° |
| 2026-05-07 10:00 | 40.99994 | 37.89211 | 2599 ft | 143 kts | 107° |
| 2026-05-07 10:00 | 40.99870 | 37.90509 | 2501 ft | 141 kts | 95° |
| 2026-05-07 10:00 | 40.99757 | 37.91802 | 2350 ft | 141 kts | 98° |
| 2026-05-07 10:01 | 40.99561 | 37.93065 | 2151 ft | 140 kts | 103° |
| 2026-05-07 10:01 | 40.99302 | 37.94301 | 1998 ft | 139 kts | 106° |
| 2026-05-07 10:01 | 40.99001 | 37.95516 | 1820 ft | 138 kts | 108° |
| 2026-05-07 10:01 | 40.98689 | 37.96714 | 1632 ft | 138 kts | 108° |
| 2026-05-07 10:02 | 40.98408 | 37.97920 | 1410 ft | 137 kts | 102° |
| 2026-05-07 10:02 | 40.98216 | 37.99143 | 1135 ft | 135 kts | 100° |
| 2026-05-07 10:02 | 40.98022 | 38.00360 | 948 ft | 135 kts | 101° |
| 2026-05-07 10:02 | 40.97820 | 38.01566 | 789 ft | 135 kts | 101° |
| 2026-05-07 10:03 | 40.97619 | 38.02777 | 642 ft | 135 kts | 102° |
| 2026-05-07 10:03 | 40.97421 | 38.03984 | 486 ft | 134 kts | 101° |
| 2026-05-07 10:03 | 40.97234 | 38.05179 | 331 ft | 134 kts | 101° |
| 2026-05-07 10:03 | 40.97038 | 38.06404 | 143 ft | 134 kts | 101° |
| 2026-05-07 10:04 | 40.96849 | 38.07580 | 40 ft | 127 kts | 101° |
| 2026-05-07 10:04 | 40.96683 | 38.08626 | 25 ft | 94 kts | 101° |
| 2026-05-07 10:04 | 40.96583 | 38.09247 | 28 ft | 46 kts | 102° |
| 2026-05-07 10:04 | 40.96550 | 38.09441 | 30 ft | 3 kts | 106° |
| 2026-05-07 10:05 | 40.96537 | 38.09477 | 29 ft | 6 kts | 116° |
| 2026-05-07 10:05 | 40.96531 | 38.09526 | 30 ft | 6 kts | 48° |
| 2026-05-07 10:05 | 40.96557 | 38.09487 | 30 ft | 8 kts | 273° |
| 2026-05-07 10:05 | 40.96562 | 38.09391 | 30 ft | 13 kts | 276° |
| 2026-05-07 10:06 | 40.96584 | 38.09241 | 28 ft | 20 kts | 283° |
| 2026-05-07 10:06 | 40.96618 | 38.09035 | 27 ft | 26 kts | 282° |
| 2026-05-07 10:06 | 40.96656 | 38.08790 | 27 ft | 28 kts | 281° |
| 2026-05-07 10:06 | 40.96695 | 38.08537 | 29 ft | 27 kts | 282° |
| 2026-05-07 10:07 | 40.96732 | 38.08297 | 28 ft | 27 kts | 282° |
| 2026-05-07 10:07 | 40.96754 | 38.08152 | 30 ft | 8 kts | 278° |
| 2026-05-07 10:07 | 40.96729 | 38.08113 | 29 ft | 7 kts | 192° |
| 2026-05-07 10:07 | 40.96683 | 38.08101 | 29 ft | 7 kts | 191° |
| 2026-05-07 10:08 | 40.96631 | 38.08088 | 24 ft | 8 kts | 191° |
| 2026-05-07 10:08 | 40.96568 | 38.08073 | 23 ft | 8 kts | 190° |
| 2026-05-07 10:08 | 40.96531 | 38.08065 | 23 ft | 6 kts | 185° |
| 2026-05-07 10:08 | 40.96496 | 38.08071 | 23 ft | 5 kts | 189° |
| 2026-05-07 10:09 | 40.96472 | 38.08062 | 23 ft | 0 kts | 196° |
| 2026-05-07 10:09 | 40.96463 | 38.08060 | 23 ft | 2 kts | 191° |
| 2026-05-07 10:09 | 40.96461 | 38.08059 | 23 ft | 0 kts | 191° |
| 2026-05-07 10:12 | 40.96462 | 38.08060 | 23 ft | 0 kts | 192° |